sensor_id;sensor_type;location;lat;lon;timestamp;pressure;altitude;pressure_sealevel;temperature;humidity
7760;BME280;3924;48.830;9.262;2024-03-07T00:01:36;99147.84;;;6.24;95.25
7760;BME280;3924;48.830;9.262;2024-03-07T00:04:03;99153.50;;;6.22;95.52
7760;BME280;3924;48.830;9.262;2024-03-07T00:06:30;99138.97;;;6.23;95.26
7760;BME280;3924;48.830;9.262;2024-03-07T00:08:56;99144.88;;;6.20;94.68
7760;BME280;3924;48.830;9.262;2024-03-07T00:11:23;99149.44;;;6.20;94.92
7760;BME280;3924;48.830;9.262;2024-03-07T00:13:49;99153.44;;;6.17;95.38
7760;BME280;3924;48.830;9.262;2024-03-07T00:16:16;99146.69;;;6.15;94.89
7760;BME280;3924;48.830;9.262;2024-03-07T00:18:43;99152.88;;;6.15;94.99
7760;BME280;3924;48.830;9.262;2024-03-07T00:21:10;99145.06;;;6.14;95.19
7760;BME280;3924;48.830;9.262;2024-03-07T00:23:36;99150.69;;;6.12;95.08
7760;BME280;3924;48.830;9.262;2024-03-07T00:26:03;99149.28;;;6.10;95.28
7760;BME280;3924;48.830;9.262;2024-03-07T00:28:30;99148.72;;;6.08;95.46
7760;BME280;3924;48.830;9.262;2024-03-07T00:30:59;99143.59;;;6.06;94.97
7760;BME280;3924;48.830;9.262;2024-03-07T00:33:25;99143.84;;;6.05;95.55
7760;BME280;3924;48.830;9.262;2024-03-07T00:36:07;99147.84;;;6.02;95.00
7760;BME280;3924;48.830;9.262;2024-03-07T00:38:34;99147.84;;;6.02;95.64
7760;BME280;3924;48.830;9.262;2024-03-07T00:41:00;99144.34;;;6.01;95.22
7760;BME280;3924;48.830;9.262;2024-03-07T00:43:27;99140.53;;;5.97;95.14
7760;BME280;3924;48.830;9.262;2024-03-07T00:45:53;99148.81;;;5.96;95.39
7760;BME280;3924;48.830;9.262;2024-03-07T00:48:20;99144.50;;;5.95;95.23
7760;BME280;3924;48.830;9.262;2024-03-07T00:50:47;99145.59;;;5.94;95.03
7760;BME280;3924;48.830;9.262;2024-03-07T00:53:14;99146.91;;;5.91;95.60
7760;BME280;3924;48.830;9.262;2024-03-07T00:55:41;99144.41;;;5.90;94.71
7760;BME280;3924;48.830;9.262;2024-03-07T00:58:08;99139.53;;;5.87;94.51
7760;BME280;3924;48.830;9.262;2024-03-07T01:00:34;99137.56;;;5.82;94.61
7760;BME280;3924;48.830;9.262;2024-03-07T01:03:01;99137.53;;;5.77;95.09
7760;BME280;3924;48.830;9.262;2024-03-07T01:05:27;99137.75;;;5.75;95.23
7760;BME280;3924;48.830;9.262;2024-03-07T01:07:54;99138.81;;;5.74;95.20
7760;BME280;3924;48.830;9.262;2024-03-07T01:10:22;99128.03;;;5.74;95.60
7760;BME280;3924;48.830;9.262;2024-03-07T01:12:48;99129.38;;;5.72;95.55
7760;BME280;3924;48.830;9.262;2024-03-07T01:15:16;99129.28;;;5.67;95.46
7760;BME280;3924;48.830;9.262;2024-03-07T01:17:43;99132.69;;;5.62;95.11
7760;BME280;3924;48.830;9.262;2024-03-07T01:20:11;99126.19;;;5.58;95.80
7760;BME280;3924;48.830;9.262;2024-03-07T01:22:38;99135.81;;;5.54;95.03
7760;BME280;3924;48.830;9.262;2024-03-07T01:25:05;99125.00;;;5.49;95.37
7760;BME280;3924;48.830;9.262;2024-03-07T01:27:32;99136.56;;;5.49;94.96
7760;BME280;3924;48.830;9.262;2024-03-07T01:29:59;99126.03;;;5.48;95.60
7760;BME280;3924;48.830;9.262;2024-03-07T01:32:25;99128.66;;;5.43;95.38
7760;BME280;3924;48.830;9.262;2024-03-07T01:34:52;99131.81;;;5.40;95.26
7760;BME280;3924;48.830;9.262;2024-03-07T01:37:18;99131.25;;;5.38;95.08
7760;BME280;3924;48.830;9.262;2024-03-07T01:39:45;99125.22;;;5.31;95.20
7760;BME280;3924;48.830;9.262;2024-03-07T01:42:12;99120.81;;;5.25;95.03
7760;BME280;3924;48.830;9.262;2024-03-07T01:44:39;99123.41;;;5.19;95.22
7760;BME280;3924;48.830;9.262;2024-03-07T01:47:07;99119.50;;;5.10;95.06
7760;BME280;3924;48.830;9.262;2024-03-07T01:49:34;99118.34;;;5.06;95.52
7760;BME280;3924;48.830;9.262;2024-03-07T01:52:01;99115.91;;;5.05;95.41
7760;BME280;3924;48.830;9.262;2024-03-07T01:54:31;99111.84;;;5.02;95.14
7760;BME280;3924;48.830;9.262;2024-03-07T01:56:59;99106.94;;;4.99;95.19
7760;BME280;3924;48.830;9.262;2024-03-07T01:59:26;99112.31;;;4.99;95.43
7760;BME280;3924;48.830;9.262;2024-03-07T02:01:53;99102.53;;;4.93;95.08
7760;BME280;3924;48.830;9.262;2024-03-07T02:04:20;99103.03;;;4.90;95.34
7760;BME280;3924;48.830;9.262;2024-03-07T02:06:46;99090.06;;;4.87;95.33
7760;BME280;3924;48.830;9.262;2024-03-07T02:09:13;99100.81;;;4.87;95.41
7760;BME280;3924;48.830;9.262;2024-03-07T02:11:40;99094.88;;;4.85;95.57
7760;BME280;3924;48.830;9.262;2024-03-07T02:14:07;99087.31;;;4.82;94.90
7760;BME280;3924;48.830;9.262;2024-03-07T02:16:34;99091.88;;;4.81;95.14
7760;BME280;3924;48.830;9.262;2024-03-07T02:19:01;99091.28;;;4.79;95.28
7760;BME280;3924;48.830;9.262;2024-03-07T02:21:28;99089.56;;;4.73;95.02
7760;BME280;3924;48.830;9.262;2024-03-07T02:23:54;99083.31;;;4.68;95.27
7760;BME280;3924;48.830;9.262;2024-03-07T02:26:21;99090.78;;;4.65;95.17
7760;BME280;3924;48.830;9.262;2024-03-07T02:28:48;99090.22;;;4.63;95.50
7760;BME280;3924;48.830;9.262;2024-03-07T02:31:14;99078.91;;;4.61;95.45
7760;BME280;3924;48.830;9.262;2024-03-07T02:33:41;99086.84;;;4.56;95.44
7760;BME280;3924;48.830;9.262;2024-03-07T02:36:08;99080.09;;;4.54;95.15
7760;BME280;3924;48.830;9.262;2024-03-07T02:38:34;99082.44;;;4.50;95.14
7760;BME280;3924;48.830;9.262;2024-03-07T02:41:01;99073.81;;;4.48;95.17
7760;BME280;3924;48.830;9.262;2024-03-07T02:43:28;99074.88;;;4.47;95.53
7760;BME280;3924;48.830;9.262;2024-03-07T02:45:54;99072.09;;;4.42;94.93
7760;BME280;3924;48.830;9.262;2024-03-07T02:48:21;99064.19;;;4.35;94.96
7760;BME280;3924;48.830;9.262;2024-03-07T02:50:48;99070.25;;;4.31;95.28
7760;BME280;3924;48.830;9.262;2024-03-07T02:53:14;99070.50;;;4.29;95.27
7760;BME280;3924;48.830;9.262;2024-03-07T02:55:41;99073.88;;;4.25;95.17
7760;BME280;3924;48.830;9.262;2024-03-07T02:58:08;99068.91;;;4.17;94.82
7760;BME280;3924;48.830;9.262;2024-03-07T03:00:35;99077.91;;;4.10;94.59
7760;BME280;3924;48.830;9.262;2024-03-07T03:03:02;99073.25;;;4.06;95.10
7760;BME280;3924;48.830;9.262;2024-03-07T03:05:29;99068.13;;;4.04;95.24
7760;BME280;3924;48.830;9.262;2024-03-07T03:07:56;99065.09;;;4.01;95.03
7760;BME280;3924;48.830;9.262;2024-03-07T03:10:24;99063.72;;;3.98;95.04
7760;BME280;3924;48.830;9.262;2024-03-07T03:12:56;99061.25;;;3.97;94.97
7760;BME280;3924;48.830;9.262;2024-03-07T03:15:28;99077.03;;;3.93;94.95
7760;BME280;3924;48.830;9.262;2024-03-07T03:17:55;99066.75;;;3.90;94.87
7760;BME280;3924;48.830;9.262;2024-03-07T03:20:26;99061.06;;;3.87;94.79
7760;BME280;3924;48.830;9.262;2024-03-07T03:23:00;99062.31;;;3.84;94.50
7760;BME280;3924;48.830;9.262;2024-03-07T03:25:45;99061.50;;;3.83;94.99
7760;BME280;3924;48.830;9.262;2024-03-07T03:28:11;99055.81;;;3.80;94.98
7760;BME280;3924;48.830;9.262;2024-03-07T03:30:39;99052.91;;;3.81;95.16
7760;BME280;3924;48.830;9.262;2024-03-07T03:33:07;99059.88;;;3.82;94.92
7760;BME280;3924;48.830;9.262;2024-03-07T03:35:34;99059.88;;;3.82;95.16
7760;BME280;3924;48.830;9.262;2024-03-07T03:38:01;99065.25;;;3.82;94.96
7760;BME280;3924;48.830;9.262;2024-03-07T03:40:28;99070.28;;;3.79;94.82
7760;BME280;3924;48.830;9.262;2024-03-07T03:42:54;99067.00;;;3.77;94.93
7760;BME280;3924;48.830;9.262;2024-03-07T03:45:21;99062.69;;;3.76;94.68
7760;BME280;3924;48.830;9.262;2024-03-07T03:47:47;99064.31;;;3.77;94.99
7760;BME280;3924;48.830;9.262;2024-03-07T03:50:14;99051.41;;;3.74;95.25
7760;BME280;3924;48.830;9.262;2024-03-07T03:52:41;99053.28;;;3.73;94.86
7760;BME280;3924;48.830;9.262;2024-03-07T03:55:09;99056.53;;;3.75;94.95
7760;BME280;3924;48.830;9.262;2024-03-07T03:57:40;99060.00;;;3.76;95.28
7760;BME280;3924;48.830;9.262;2024-03-07T04:00:07;99053.50;;;3.72;94.65
7760;BME280;3924;48.830;9.262;2024-03-07T04:02:45;99061.44;;;3.67;94.88
7760;BME280;3924;48.830;9.262;2024-03-07T04:05:16;99060.25;;;3.63;94.57
7760;BME280;3924;48.830;9.262;2024-03-07T04:07:43;99055.97;;;3.62;95.12
7760;BME280;3924;48.830;9.262;2024-03-07T04:10:11;99058.63;;;3.62;95.14
7760;BME280;3924;48.830;9.262;2024-03-07T04:12:40;99053.28;;;3.62;94.88
7760;BME280;3924;48.830;9.262;2024-03-07T04:15:09;99064.81;;;3.62;94.91
7760;BME280;3924;48.830;9.262;2024-03-07T04:17:36;99051.66;;;3.61;94.47
7760;BME280;3924;48.830;9.262;2024-03-07T04:20:06;99055.16;;;3.61;95.00
7760;BME280;3924;48.830;9.262;2024-03-07T04:22:34;99056.53;;;3.64;94.95
7760;BME280;3924;48.830;9.262;2024-03-07T04:25:02;99049.53;;;3.63;94.96
7760;BME280;3924;48.830;9.262;2024-03-07T04:27:28;99056.53;;;3.64;94.63
7760;BME280;3924;48.830;9.262;2024-03-07T04:29:55;99051.16;;;3.64;94.78
7760;BME280;3924;48.830;9.262;2024-03-07T04:32:22;99049.34;;;3.64;94.94
7760;BME280;3924;48.830;9.262;2024-03-07T04:34:49;99048.72;;;3.62;94.81
7760;BME280;3924;48.830;9.262;2024-03-07T04:37:16;99053.75;;;3.59;94.57
7760;BME280;3924;48.830;9.262;2024-03-07T04:39:43;99051.09;;;3.59;94.75
7760;BME280;3924;48.830;9.262;2024-03-07T04:42:09;99047.78;;;3.56;94.57
7760;BME280;3924;48.830;9.262;2024-03-07T04:44:36;99050.97;;;3.53;94.33
7760;BME280;3924;48.830;9.262;2024-03-07T04:47:04;99045.25;;;3.50;94.41
7760;BME280;3924;48.830;9.262;2024-03-07T04:49:32;99046.53;;;3.47;94.71
7760;BME280;3924;48.830;9.262;2024-03-07T04:52:01;99043.53;;;3.44;94.68
7760;BME280;3924;48.830;9.262;2024-03-07T04:54:30;99046.31;;;3.37;94.39
7760;BME280;3924;48.830;9.262;2024-03-07T04:56:58;99049.69;;;3.33;94.62
7760;BME280;3924;48.830;9.262;2024-03-07T04:59:25;99038.97;;;3.33;94.71
7760;BME280;3924;48.830;9.262;2024-03-07T05:01:52;99050.50;;;3.33;94.97
7760;BME280;3924;48.830;9.262;2024-03-07T05:04:18;99054.22;;;3.32;94.93
7760;BME280;3924;48.830;9.262;2024-03-07T05:06:45;99055.53;;;3.29;94.59
7760;BME280;3924;48.830;9.262;2024-03-07T05:09:14;99054.34;;;3.25;94.29
7760;BME280;3924;48.830;9.262;2024-03-07T05:11:52;99058.31;;;3.23;94.59
7760;BME280;3924;48.830;9.262;2024-03-07T05:14:20;99048.97;;;3.14;94.21
7760;BME280;3924;48.830;9.262;2024-03-07T05:16:47;99049.69;;;3.09;94.20
7760;BME280;3924;48.830;9.262;2024-03-07T05:19:28;99054.69;;;3.06;94.50
7760;BME280;3924;48.830;9.262;2024-03-07T05:21:55;99053.06;;;3.05;94.67
7760;BME280;3924;48.830;9.262;2024-03-07T05:24:22;99057.22;;;3.00;94.53
7760;BME280;3924;48.830;9.262;2024-03-07T05:26:48;99051.88;;;3.00;94.65
7760;BME280;3924;48.830;9.262;2024-03-07T05:29:15;99049.81;;;3.03;94.66
7760;BME280;3924;48.830;9.262;2024-03-07T05:31:44;99041.75;;;3.03;94.49
7760;BME280;3924;48.830;9.262;2024-03-07T05:34:18;99045.69;;;3.00;94.75
7760;BME280;3924;48.830;9.262;2024-03-07T05:36:50;99047.00;;;2.97;94.39
7760;BME280;3924;48.830;9.262;2024-03-07T05:39:17;99043.75;;;2.95;94.24
7760;BME280;3924;48.830;9.262;2024-03-07T05:41:45;99047.91;;;2.91;94.16
7760;BME280;3924;48.830;9.262;2024-03-07T05:44:12;99045.56;;;2.83;94.01
7760;BME280;3924;48.830;9.262;2024-03-07T05:46:41;99047.63;;;2.81;94.56
7760;BME280;3924;48.830;9.262;2024-03-07T05:49:13;99050.13;;;2.83;94.62
7760;BME280;3924;48.830;9.262;2024-03-07T05:51:40;99051.38;;;2.80;94.36
7760;BME280;3924;48.830;9.262;2024-03-07T05:54:11;99048.59;;;2.75;94.27
7760;BME280;3924;48.830;9.262;2024-03-07T05:56:40;99045.53;;;2.71;94.28
7760;BME280;3924;48.830;9.262;2024-03-07T05:59:08;99045.78;;;2.70;94.58
7760;BME280;3924;48.830;9.262;2024-03-07T06:01:38;99042.06;;;2.71;94.46
7760;BME280;3924;48.830;9.262;2024-03-07T06:04:06;99047.41;;;2.71;94.17
7760;BME280;3924;48.830;9.262;2024-03-07T06:06:34;99046.94;;;2.74;94.67
7760;BME280;3924;48.830;9.262;2024-03-07T06:09:07;99036.59;;;2.78;94.66
7760;BME280;3924;48.830;9.262;2024-03-07T06:11:38;99049.75;;;2.79;94.39
7760;BME280;3924;48.830;9.262;2024-03-07T06:14:06;99041.72;;;2.79;94.50
7760;BME280;3924;48.830;9.262;2024-03-07T06:16:36;99042.28;;;2.81;94.67
7760;BME280;3924;48.830;9.262;2024-03-07T06:19:05;99038.59;;;2.82;94.32
7760;BME280;3924;48.830;9.262;2024-03-07T06:21:38;99041.84;;;2.84;94.56
7760;BME280;3924;48.830;9.262;2024-03-07T06:24:08;99040.94;;;2.90;94.74
7760;BME280;3924;48.830;9.262;2024-03-07T06:26:38;99039.31;;;2.89;94.38
7760;BME280;3924;48.830;9.262;2024-03-07T06:29:08;99038.81;;;2.92;94.38
7760;BME280;3924;48.830;9.262;2024-03-07T06:31:37;99039.63;;;2.93;94.32
7760;BME280;3924;48.830;9.262;2024-03-07T06:34:04;99032.19;;;2.95;94.38
7760;BME280;3924;48.830;9.262;2024-03-07T06:36:31;99044.88;;;2.99;94.65
7760;BME280;3924;48.830;9.262;2024-03-07T06:38:57;99038.47;;;3.00;93.86
7760;BME280;3924;48.830;9.262;2024-03-07T06:41:24;99032.78;;;2.97;93.96
7760;BME280;3924;48.830;9.262;2024-03-07T06:43:52;99041.50;;;2.92;94.05
7760;BME280;3924;48.830;9.262;2024-03-07T06:46:21;99048.00;;;2.85;94.25
7760;BME280;3924;48.830;9.262;2024-03-07T06:48:48;99046.38;;;2.84;94.27
7760;BME280;3924;48.830;9.262;2024-03-07T06:51:14;99045.81;;;2.93;94.35
7760;BME280;3924;48.830;9.262;2024-03-07T06:53:43;99048.63;;;2.98;93.70
7760;BME280;3924;48.830;9.262;2024-03-07T06:56:13;99047.22;;;3.08;94.21
7760;BME280;3924;48.830;9.262;2024-03-07T06:58:40;99046.28;;;3.14;94.06
7760;BME280;3924;48.830;9.262;2024-03-07T07:01:07;99041.63;;;3.21;94.00
7760;BME280;3924;48.830;9.262;2024-03-07T07:03:36;99046.88;;;3.27;94.02
7760;BME280;3924;48.830;9.262;2024-03-07T07:06:04;99050.84;;;3.25;93.43
7760;BME280;3924;48.830;9.262;2024-03-07T07:08:33;99044.44;;;3.26;93.67
7760;BME280;3924;48.830;9.262;2024-03-07T07:11:00;99049.00;;;3.37;93.85
7760;BME280;3924;48.830;9.262;2024-03-07T07:13:27;99048.63;;;3.45;93.91
7760;BME280;3924;48.830;9.262;2024-03-07T07:15:53;99054.47;;;3.54;93.68
7760;BME280;3924;48.830;9.262;2024-03-07T07:18:20;99051.53;;;3.55;93.33
7760;BME280;3924;48.830;9.262;2024-03-07T07:20:48;99051.66;;;3.61;93.43
7760;BME280;3924;48.830;9.262;2024-03-07T07:23:15;99053.28;;;3.62;93.12
7760;BME280;3924;48.830;9.262;2024-03-07T07:25:42;99049.91;;;3.54;92.75
7760;BME280;3924;48.830;9.262;2024-03-07T07:28:08;99041.75;;;3.61;93.55
7760;BME280;3924;48.830;9.262;2024-03-07T07:30:37;99035.31;;;3.74;93.56
7760;BME280;3924;48.830;9.262;2024-03-07T07:33:07;99043.84;;;3.71;92.69
7760;BME280;3924;48.830;9.262;2024-03-07T07:35:33;99028.47;;;3.66;93.01
7760;BME280;3924;48.830;9.262;2024-03-07T07:38:01;99035.94;;;3.64;92.85
7760;BME280;3924;48.830;9.262;2024-03-07T07:40:28;99034.75;;;3.72;93.51
7760;BME280;3924;48.830;9.262;2024-03-07T07:42:57;99037.75;;;3.87;93.69
7760;BME280;3924;48.830;9.262;2024-03-07T07:45:24;99040.16;;;4.00;92.91
7760;BME280;3924;48.830;9.262;2024-03-07T07:47:52;99037.19;;;4.14;92.98
7760;BME280;3924;48.830;9.262;2024-03-07T07:50:21;99036.78;;;4.05;91.92
7760;BME280;3924;48.830;9.262;2024-03-07T07:55:15;99026.84;;;4.05;93.05
7760;BME280;3924;48.830;9.262;2024-03-07T07:57:45;99034.69;;;4.24;92.68
7760;BME280;3924;48.830;9.262;2024-03-07T08:00:14;99026.19;;;4.27;92.48
7760;BME280;3924;48.830;9.262;2024-03-07T08:02:59;99039.25;;;4.23;92.16
7760;BME280;3924;48.830;9.262;2024-03-07T08:05:28;99027.13;;;4.21;92.41
7760;BME280;3924;48.830;9.262;2024-03-07T08:07:56;99033.22;;;4.16;91.89
7760;BME280;3924;48.830;9.262;2024-03-07T08:10:25;99029.03;;;4.08;92.37
7760;BME280;3924;48.830;9.262;2024-03-07T08:12:55;99036.03;;;4.09;92.48
7760;BME280;3924;48.830;9.262;2024-03-07T08:15:22;99027.81;;;3.99;92.22
7760;BME280;3924;48.830;9.262;2024-03-07T08:17:49;99021.75;;;3.92;92.03
7760;BME280;3924;48.830;9.262;2024-03-07T08:20:19;99031.06;;;3.90;92.29
7760;BME280;3924;48.830;9.262;2024-03-07T08:22:53;99031.31;;;3.88;92.65
7760;BME280;3924;48.830;9.262;2024-03-07T08:25:22;99020.94;;;3.92;92.25
7760;BME280;3924;48.830;9.262;2024-03-07T08:27:53;99018.25;;;3.92;91.82
7760;BME280;3924;48.830;9.262;2024-03-07T08:30:20;99022.91;;;3.96;92.17
7760;BME280;3924;48.830;9.262;2024-03-07T08:32:49;99018.13;;;3.98;91.99
7760;BME280;3924;48.830;9.262;2024-03-07T08:35:18;99019.06;;;3.92;92.00
7760;BME280;3924;48.830;9.262;2024-03-07T08:37:46;99018.03;;;3.93;92.44
7760;BME280;3924;48.830;9.262;2024-03-07T08:40:15;99015.91;;;3.95;91.91
7760;BME280;3924;48.830;9.262;2024-03-07T08:42:52;99015.91;;;3.95;91.78
7760;BME280;3924;48.830;9.262;2024-03-07T08:45:25;99018.22;;;4.03;92.04
7760;BME280;3924;48.830;9.262;2024-03-07T08:47:53;99016.97;;;4.23;91.65
7760;BME280;3924;48.830;9.262;2024-03-07T08:50:23;99014.53;;;4.21;90.74
7760;BME280;3924;48.830;9.262;2024-03-07T08:52:50;99020.06;;;4.31;91.30
7760;BME280;3924;48.830;9.262;2024-03-07T08:55:20;99013.44;;;4.34;91.46
7760;BME280;3924;48.830;9.262;2024-03-07T08:57:47;99011.66;;;4.39;91.40
7760;BME280;3924;48.830;9.262;2024-03-07T09:00:16;99013.59;;;4.44;91.24
7760;BME280;3924;48.830;9.262;2024-03-07T09:02:54;99007.94;;;4.57;91.21
7760;BME280;3924;48.830;9.262;2024-03-07T09:05:22;99002.59;;;4.74;91.06
7760;BME280;3924;48.830;9.262;2024-03-07T09:07:51;99006.66;;;4.77;90.42
7760;BME280;3924;48.830;9.262;2024-03-07T09:10:18;99001.13;;;4.83;90.98
7760;BME280;3924;48.830;9.262;2024-03-07T09:12:46;99000.97;;;4.90;90.68
7760;BME280;3924;48.830;9.262;2024-03-07T09:15:16;98990.78;;;4.92;90.48
7760;BME280;3924;48.830;9.262;2024-03-07T09:17:44;98994.69;;;5.01;90.61
7760;BME280;3924;48.830;9.262;2024-03-07T09:20:12;98999.78;;;5.19;90.51
7760;BME280;3924;48.830;9.262;2024-03-07T09:22:43;98991.22;;;5.39;89.72
7760;BME280;3924;48.830;9.262;2024-03-07T09:25:10;98988.53;;;5.61;90.05
7760;BME280;3924;48.830;9.262;2024-03-07T09:27:37;98987.16;;;5.81;89.67
7760;BME280;3924;48.830;9.262;2024-03-07T09:30:05;98979.06;;;5.97;89.53
7760;BME280;3924;48.830;9.262;2024-03-07T09:32:31;98977.59;;;5.90;89.00
7760;BME280;3924;48.830;9.262;2024-03-07T09:35:00;98982.50;;;5.93;89.31
7760;BME280;3924;48.830;9.262;2024-03-07T09:37:27;98976.84;;;6.16;89.16
7760;BME280;3924;48.830;9.262;2024-03-07T09:39:54;98976.88;;;6.48;88.48
7760;BME280;3924;48.830;9.262;2024-03-07T09:42:20;98974.59;;;6.62;88.30
7760;BME280;3924;48.830;9.262;2024-03-07T09:44:48;98971.31;;;6.55;88.11
7760;BME280;3924;48.830;9.262;2024-03-07T09:47:17;98970.97;;;6.46;88.21
7760;BME280;3924;48.830;9.262;2024-03-07T09:49:45;98970.09;;;6.41;88.41
7760;BME280;3924;48.830;9.262;2024-03-07T09:52:12;98975.69;;;6.34;88.25
7760;BME280;3924;48.830;9.262;2024-03-07T09:54:40;98960.59;;;6.65;88.00
7760;BME280;3924;48.830;9.262;2024-03-07T09:57:07;98974.28;;;6.91;87.76
7760;BME280;3924;48.830;9.262;2024-03-07T09:59:36;98966.34;;;7.11;87.73
7760;BME280;3924;48.830;9.262;2024-03-07T10:02:06;98964.78;;;7.20;86.93
7760;BME280;3924;48.830;9.262;2024-03-07T10:04:42;98964.63;;;7.37;86.71
7760;BME280;3924;48.830;9.262;2024-03-07T10:07:11;98965.97;;;7.39;87.48
7760;BME280;3924;48.830;9.262;2024-03-07T10:09:40;98964.41;;;7.54;86.91
7760;BME280;3924;48.830;9.262;2024-03-07T10:12:09;98964.00;;;7.77;85.92
7760;BME280;3924;48.830;9.262;2024-03-07T10:14:51;98967.03;;;8.01;85.92
7760;BME280;3924;48.830;9.262;2024-03-07T10:17:25;98965.22;;;8.17;85.77
7760;BME280;3924;48.830;9.262;2024-03-07T10:19:55;98966.56;;;8.30;84.98
7760;BME280;3924;48.830;9.262;2024-03-07T10:22:26;98965.25;;;8.32;84.98
7760;BME280;3924;48.830;9.262;2024-03-07T10:24:53;98971.44;;;8.28;85.67
7760;BME280;3924;48.830;9.262;2024-03-07T10:27:26;98968.00;;;8.37;84.71
7760;BME280;3924;48.830;9.262;2024-03-07T10:29:54;98959.84;;;8.32;84.02
7760;BME280;3924;48.830;9.262;2024-03-07T10:32:23;98950.94;;;8.32;85.46
7760;BME280;3924;48.830;9.262;2024-03-07T10:34:51;98953.41;;;8.38;85.18
7760;BME280;3924;48.830;9.262;2024-03-07T10:37:18;98953.91;;;8.35;84.97
7760;BME280;3924;48.830;9.262;2024-03-07T10:39:47;98954.94;;;8.29;84.89
7760;BME280;3924;48.830;9.262;2024-03-07T10:42:17;98955.00;;;8.49;84.12
7760;BME280;3924;48.830;9.262;2024-03-07T10:44:48;98949.59;;;8.49;83.75
7760;BME280;3924;48.830;9.262;2024-03-07T10:47:17;98941.81;;;8.58;84.57
7760;BME280;3924;48.830;9.262;2024-03-07T10:50:16;98946.91;;;8.55;84.44
7760;BME280;3924;48.830;9.262;2024-03-07T10:52:59;98947.19;;;8.58;83.79
7760;BME280;3924;48.830;9.262;2024-03-07T10:55:34;98937.72;;;8.35;84.25
7760;BME280;3924;48.830;9.262;2024-03-07T10:58:23;98944.16;;;8.34;83.33
7760;BME280;3924;48.830;9.262;2024-03-07T11:00:56;98939.84;;;8.33;83.32
7760;BME280;3924;48.830;9.262;2024-03-07T11:03:25;98939.31;;;8.36;83.07
7760;BME280;3924;48.830;9.262;2024-03-07T11:05:52;98940.41;;;8.35;83.58
7760;BME280;3924;48.830;9.262;2024-03-07T11:08:19;98939.00;;;8.22;83.75
7760;BME280;3924;48.830;9.262;2024-03-07T11:10:47;98931.13;;;8.01;83.18
7760;BME280;3924;48.830;9.262;2024-03-07T11:13:14;98930.59;;;7.99;83.12
7760;BME280;3924;48.830;9.262;2024-03-07T11:15:45;98928.41;;;7.85;82.93
7760;BME280;3924;48.830;9.262;2024-03-07T11:18:13;98929.50;;;7.94;83.09
7760;BME280;3924;48.830;9.262;2024-03-07T11:20:40;98914.97;;;8.21;82.92
7760;BME280;3924;48.830;9.262;2024-03-07T11:23:32;98918.56;;;8.52;82.98
7760;BME280;3924;48.830;9.262;2024-03-07T11:26:07;98910.69;;;8.81;81.61
7760;BME280;3924;48.830;9.262;2024-03-07T11:28:39;98904.41;;;9.21;81.66
7760;BME280;3924;48.830;9.262;2024-03-07T11:31:13;98899.81;;;9.27;80.68
7760;BME280;3924;48.830;9.262;2024-03-07T11:33:41;98892.22;;;9.19;81.56
7760;BME280;3924;48.830;9.262;2024-03-07T11:36:08;98893.75;;;9.50;80.25
7760;BME280;3924;48.830;9.262;2024-03-07T11:38:44;98884.03;;;9.94;79.57
7760;BME280;3924;48.830;9.262;2024-03-07T11:41:12;98885.53;;;9.76;79.11
7760;BME280;3924;48.830;9.262;2024-03-07T11:43:40;98874.63;;;9.81;79.68
7760;BME280;3924;48.830;9.262;2024-03-07T11:46:08;98871.25;;;10.04;79.20
7760;BME280;3924;48.830;9.262;2024-03-07T11:48:41;98871.97;;;10.15;78.30
7760;BME280;3924;48.830;9.262;2024-03-07T11:51:14;98873.88;;;10.25;77.74
7760;BME280;3924;48.830;9.262;2024-03-07T11:53:43;98875.25;;;10.17;78.65
7760;BME280;3924;48.830;9.262;2024-03-07T11:56:13;98865.47;;;9.77;78.48
7760;BME280;3924;48.830;9.262;2024-03-07T11:58:44;98862.44;;;9.34;78.73
7760;BME280;3924;48.830;9.262;2024-03-07T12:01:11;98863.56;;;9.18;79.10
7760;BME280;3924;48.830;9.262;2024-03-07T12:03:40;98860.63;;;9.09;79.68
7760;BME280;3924;48.830;9.262;2024-03-07T12:06:08;98851.72;;;9.03;79.78
7760;BME280;3924;48.830;9.262;2024-03-07T12:08:39;98860.09;;;9.07;79.65
7760;BME280;3924;48.830;9.262;2024-03-07T12:11:09;98852.22;;;9.11;79.35
7760;BME280;3924;48.830;9.262;2024-03-07T12:13:39;98857.13;;;9.03;79.21
7760;BME280;3924;48.830;9.262;2024-03-07T12:16:07;98852.84;;;8.87;79.38
7760;BME280;3924;48.830;9.262;2024-03-07T12:18:35;98853.13;;;8.70;78.69
7760;BME280;3924;48.830;9.262;2024-03-07T12:21:03;98860.97;;;8.62;79.20
7760;BME280;3924;48.830;9.262;2024-03-07T12:23:33;98860.97;;;8.62;79.05
7760;BME280;3924;48.830;9.262;2024-03-07T12:26:01;98851.75;;;8.78;78.90
7760;BME280;3924;48.830;9.262;2024-03-07T12:28:28;98842.84;;;8.77;78.46
7760;BME280;3924;48.830;9.262;2024-03-07T12:31:01;98859.63;;;8.74;78.60
7760;BME280;3924;48.830;9.262;2024-03-07T12:33:29;98854.50;;;8.68;78.37
7760;BME280;3924;48.830;9.262;2024-03-07T12:36:02;98853.69;;;8.57;78.85
7760;BME280;3924;48.830;9.262;2024-03-07T12:38:37;98851.81;;;8.47;78.91
7760;BME280;3924;48.830;9.262;2024-03-07T12:41:06;98844.78;;;8.41;79.20
7760;BME280;3924;48.830;9.262;2024-03-07T12:43:34;98849.63;;;8.34;78.21
7760;BME280;3924;48.830;9.262;2024-03-07T12:46:01;98842.06;;;8.26;78.01
7760;BME280;3924;48.830;9.262;2024-03-07T12:48:31;98842.84;;;8.16;78.31
7760;BME280;3924;48.830;9.262;2024-03-07T12:50:58;98838.28;;;8.12;79.14
7760;BME280;3924;48.830;9.262;2024-03-07T12:53:25;98833.41;;;8.14;78.86
7760;BME280;3924;48.830;9.262;2024-03-07T12:55:52;98842.03;;;8.16;78.67
7760;BME280;3924;48.830;9.262;2024-03-07T12:58:19;98845.84;;;8.15;77.89
7760;BME280;3924;48.830;9.262;2024-03-07T13:00:46;98842.03;;;8.16;77.86
7760;BME280;3924;48.830;9.262;2024-03-07T13:03:12;98837.22;;;8.18;77.98
7760;BME280;3924;48.830;9.262;2024-03-07T13:05:42;98831.25;;;8.26;78.26
7760;BME280;3924;48.830;9.262;2024-03-07T13:08:10;98835.31;;;8.29;78.40
7760;BME280;3924;48.830;9.262;2024-03-07T13:10:39;98832.34;;;8.25;77.45
7760;BME280;3924;48.830;9.262;2024-03-07T13:13:07;98835.03;;;8.25;77.78
7760;BME280;3924;48.830;9.262;2024-03-07T13:15:38;98831.25;;;8.26;77.63
7760;BME280;3924;48.830;9.262;2024-03-07T13:18:06;98831.25;;;8.26;77.03
7760;BME280;3924;48.830;9.262;2024-03-07T13:20:33;98834.50;;;8.28;77.62
7760;BME280;3924;48.830;9.262;2024-03-07T13:23:00;98835.03;;;8.30;76.52
7760;BME280;3924;48.830;9.262;2024-03-07T13:25:28;98827.75;;;8.31;77.04
7760;BME280;3924;48.830;9.262;2024-03-07T13:30:28;98828.00;;;8.34;76.53
7760;BME280;3924;48.830;9.262;2024-03-07T13:32:56;98823.69;;;8.28;77.18
7760;BME280;3924;48.830;9.262;2024-03-07T13:35:24;98832.88;;;8.22;76.30
7760;BME280;3924;48.830;9.262;2024-03-07T13:37:53;98831.25;;;8.16;76.61
7760;BME280;3924;48.830;9.262;2024-03-07T13:40:26;98833.16;;;8.10;76.53
7760;BME280;3924;48.830;9.262;2024-03-07T13:45:21;98826.94;;;8.05;76.55
7760;BME280;3924;48.830;9.262;2024-03-07T13:47:49;98830.44;;;8.05;76.41